Time;durP1;ratioP1;P1;durP2;ratioP2;P2;SDS_P1;SDS_P2;PMS_P1;PMS_P2;Temp;Humidity;BMP_temperature;BMP_pressure;BME280_temperature;BME280_humidity;BME280_pressure;Samples;Min_cycle;Max_cycle;Signal;HPM_P1;HPM_P2
2022/07/31 00:00:16;;;;;;;;;;;;;;;25.37;82.02;96687.94;598021;237;68572;-62
2022/07/31 00:02:44;;;;;;;;;;;;;;;25.36;82.13;96676.39;598007;237;65171;-62
2022/07/31 00:05:12;;;;;;;;;;;;;;;25.37;82.22;96664.55;598008;237;66483;-62
2022/07/31 00:07:39;;;;;;;;;;;;;;;25.36;82.12;96671.01;598085;237;65957;-62
2022/07/31 00:10:07;;;;;;;;;;;;;;;25.37;82.18;96685.25;598020;237;62981;-62
2022/07/31 00:12:35;;;;;;;;;;;;;;;25.37;82.18;96696.00;598010;237;66306;-62
2022/07/31 00:15:04;;;;;;;;;;;;;;;25.37;82.01;96706.77;598021;237;66500;-62
2022/07/31 00:17:31;;;;;;;;;;;;;;;25.36;81.90;96722.12;598019;237;62813;-62
2022/07/31 00:19:59;;;;;;;;;;;;;;;25.37;81.84;96741.73;598077;237;66156;-62
2022/07/31 00:22:26;;;;;;;;;;;;;;;25.36;81.84;96758.98;598036;237;66330;-62
2022/07/31 00:24:54;;;;;;;;;;;;;;;25.37;81.92;96768.64;598017;237;65218;-62
2022/07/31 00:27:22;;;;;;;;;;;;;;;25.37;81.89;96757.88;598034;237;68550;-62
2022/07/31 00:29:50;;;;;;;;;;;;;;;25.36;81.93;96743.64;597984;237;68768;-62
2022/07/31 00:32:18;;;;;;;;;;;;;;;25.36;81.97;96746.33;598075;237;62924;-62
2022/07/31 00:34:45;;;;;;;;;;;;;;;25.36;82.06;96748.23;597978;237;68720;-62
2022/07/31 00:37:13;;;;;;;;;;;;;;;25.35;81.94;96747.44;598005;237;69168;-62
2022/07/31 00:39:42;;;;;;;;;;;;;;;25.36;82.05;96734.78;597975;237;63880;-62
2022/07/31 00:42:18;;;;;;;;;;;;;;;25.35;82.06;96739.37;597998;237;69054;-62
2022/07/31 00:44:46;;;;;;;;;;;;;;;25.35;81.87;96749.34;597796;237;69436;-62
2022/07/31 00:47:13;;;;;;;;;;;;;;;25.36;81.89;96769.75;598033;237;65220;-62
2022/07/31 00:49:41;;;;;;;;;;;;;;;25.35;82.01;96760.09;598004;237;68741;-62
2022/07/31 00:52:08;;;;;;;;;;;;;;;25.35;82.06;96760.89;598013;237;68561;-62
2022/07/31 00:54:36;;;;;;;;;;;;;;;25.35;82.08;96752.81;597988;237;63187;-62
2022/07/31 00:57:05;;;;;;;;;;;;;;;25.35;82.11;96752.81;596794;237;69194;-62
2022/07/31 00:59:32;;;;;;;;;;;;;;;25.35;82.20;96760.89;596604;238;66692;-62
2022/07/31 01:02:00;;;;;;;;;;;;;;;25.35;82.12;96766.27;596532;238;66252;-62
2022/07/31 01:04:28;;;;;;;;;;;;;;;25.35;82.12;96766.27;596510;238;68699;-62
2022/07/31 01:06:56;;;;;;;;;;;;;;;25.36;82.08;96758.98;596577;238;66653;-62
2022/07/31 01:09:24;;;;;;;;;;;;;;;25.35;81.99;96758.20;596572;238;65357;-62
2022/07/31 01:12:02;;;;;;;;;;;;;;;25.35;81.90;96768.95;596601;238;68956;-62
2022/07/31 01:14:37;;;;;;;;;;;;;;;25.35;82.03;96763.58;596394;237;69672;-63
2022/07/31 01:17:06;;;;;;;;;;;;;;;25.35;82.08;96760.89;596555;238;63718;-62
2022/07/31 01:19:41;;;;;;;;;;;;;;;25.35;82.21;96758.20;596562;238;66633;-62
2022/07/31 01:22:09;;;;;;;;;;;;;;;25.35;82.18;96757.41;596174;237;69127;-62
2022/07/31 01:24:55;;;;;;;;;;;;;;;25.35;82.18;96755.51;596366;237;65299;-63
2022/07/31 01:27:53;;;;;;;;;;;;;;;25.34;81.99;96759.28;596017;237;51439;-63
2022/07/31 01:30:22;;;;;;;;;;;;;;;25.34;82.17;96759.28;596243;237;70006;-62
2022/07/31 01:32:51;;;;;;;;;;;;;;;25.34;82.18;96748.52;596615;238;65302;-62
2022/07/31 01:35:23;;;;;;;;;;;;;;;25.33;82.12;96741.56;596527;238;66761;-63
2022/07/31 01:37:55;;;;;;;;;;;;;;;25.33;82.12;96746.94;596550;237;68745;-62
2022/07/31 01:40:28;;;;;;;;;;;;;;;25.33;82.07;96740.77;595807;237;64957;-62
2022/07/31 01:42:57;;;;;;;;;;;;;;;25.32;82.02;96739.98;596451;237;66208;-63
2022/07/31 01:45:26;;;;;;;;;;;;;;;25.34;82.06;96745.04;596574;238;69352;-62
2022/07/31 01:47:55;;;;;;;;;;;;;;;25.33;81.91;96740.77;596569;238;65221;-63
2022/07/31 01:50:25;;;;;;;;;;;;;;;25.33;82.18;96728.11;596573;238;67121;-63
2022/07/31 01:52:54;;;;;;;;;;;;;;;25.34;82.21;96737.77;596543;238;68658;-63
2022/07/31 01:55:22;;;;;;;;;;;;;;;25.33;82.20;96721.95;596480;237;63021;-63
2022/07/31 01:57:50;;;;;;;;;;;;;;;25.33;82.21;96730.80;596549;238;69086;-63
2022/07/31 02:00:18;;;;;;;;;;;;;;;25.33;82.12;96738.08;596536;238;68748;-63
2022/07/31 02:02:47;;;;;;;;;;;;;;;25.33;82.02;96738.87;596573;238;65214;-63
2022/07/31 02:05:16;;;;;;;;;;;;;;;25.33;82.00;96738.87;596539;238;69117;-63
2022/07/31 02:07:45;;;;;;;;;;;;;;;25.33;82.04;96728.11;596550;238;68648;-63
2022/07/31 02:10:14;;;;;;;;;;;;;;;25.33;82.01;96736.18;596567;238;65189;-63
2022/07/31 02:12:42;;;;;;;;;;;;;;;25.34;81.91;96742.34;596568;238;69316;-63
2022/07/31 02:15:12;;;;;;;;;;;;;;;25.32;81.93;96739.98;596533;238;68690;-63
2022/07/31 02:17:42;;;;;;;;;;;;;;;25.33;82.07;96740.77;596610;238;50632;-62
2022/07/31 02:20:25;;;;;;;;;;;;;;;25.33;82.08;96730.80;596605;237;48510;-62
2022/07/31 02:22:55;;;;;;;;;;;;;;;25.33;82.00;96730.80;596550;238;68725;-63
2022/07/31 02:25:22;;;;;;;;;;;;;;;25.33;81.95;96735.39;596505;238;65237;-63
2022/07/31 02:27:51;;;;;;;;;;;;;;;25.34;81.82;96742.34;596597;238;68883;-62
2022/07/31 02:30:18;;;;;;;;;;;;;;;25.32;81.91;96734.61;596518;238;66611;-63
2022/07/31 02:32:48;;;;;;;;;;;;;;;25.32;81.90;96734.61;591214;238;66790;-63
2022/07/31 02:35:16;;;;;;;;;;;;;;;25.32;81.82;96726.53;596524;238;66610;-62
2022/07/31 02:37:45;;;;;;;;;;;;;;;25.33;81.76;96738.08;596529;237;68585;-63
2022/07/31 02:40:14;;;;;;;;;;;;;;;25.32;81.74;96734.61;596606;238;63741;-64
2022/07/31 02:42:42;;;;;;;;;;;;;;;25.32;81.66;96737.30;596548;238;68823;-64
2022/07/31 02:45:11;;;;;;;;;;;;;;;25.32;81.54;96731.09;596522;237;69043;-64
2022/07/31 02:47:39;;;;;;;;;;;;;;;25.33;81.59;96738.08;596568;238;65184;-63
2022/07/31 02:50:08;;;;;;;;;;;;;;;25.32;81.58;96734.61;596535;237;46366;-63
2022/07/31 02:52:37;;;;;;;;;;;;;;;25.33;81.51;96738.08;596602;238;68704;-63
2022/07/31 02:55:05;;;;;;;;;;;;;;;25.33;81.58;96741.56;596585;238;65212;-63
2022/07/31 02:57:32;;;;;;;;;;;;;;;25.33;81.51;96744.25;599818;236;68789;-63
2022/07/31 03:00:00;;;;;;;;;;;;;;;25.32;81.54;96745.36;599823;236;68648;-63
2022/07/31 03:02:28;;;;;;;;;;;;;;;25.32;81.56;96756.13;599860;236;63785;-63
2022/07/31 03:04:56;;;;;;;;;;;;;;;25.32;81.67;96745.36;599813;236;68623;-63
2022/07/31 03:07:24;;;;;;;;;;;;;;;25.32;81.61;96748.05;599897;236;68627;-63
2022/07/31 03:09:51;;;;;;;;;;;;;;;25.32;81.85;96747.23;599812;236;62680;-63
2022/07/31 03:12:40;;;;;;;;;;;;;;;25.32;81.78;96753.44;599771;236;47659;-64
2022/07/31 03:15:10;;;;;;;;;;;;;;;25.31;81.87;96751.83;599743;236;68743;-63
2022/07/31 03:17:38;;;;;;;;;;;;;;;25.32;81.83;96748.05;599746;236;65999;-64
2022/07/31 03:20:07;;;;;;;;;;;;;;;25.31;81.78;96742.97;599852;236;68893;-63
2022/07/31 03:22:35;;;;;;;;;;;;;;;25.31;81.85;96743.75;599892;236;68731;-63
2022/07/31 03:25:04;;;;;;;;;;;;;;;25.31;81.71;96749.13;599860;236;63045;-63
2022/07/31 03:27:32;;;;;;;;;;;;;;;25.32;81.80;96752.61;599867;236;68854;-63
2022/07/31 03:29:59;;;;;;;;;;;;;;;25.31;81.79;96749.13;599845;236;68850;-63
2022/07/31 03:32:27;;;;;;;;;;;;;;;25.31;81.86;96753.72;599851;236;65026;-64
2022/07/31 03:34:56;;;;;;;;;;;;;;;25.31;81.93;96757.20;599879;236;65989;-63
2022/07/31 03:37:24;;;;;;;;;;;;;;;25.30;81.86;96744.08;599847;236;68829;-64
2022/07/31 03:39:52;;;;;;;;;;;;;;;25.31;81.76;96746.45;599862;236;65671;-63
2022/07/31 03:42:20;;;;;;;;;;;;;;;25.31;81.78;96748.34;599826;236;66573;-63
2022/07/31 03:44:48;;;;;;;;;;;;;;;25.31;81.83;96765.27;599864;236;68859;-63
2022/07/31 03:47:17;;;;;;;;;;;;;;;25.30;81.88;96758.31;599888;236;65075;-63
2022/07/31 03:49:45;;;;;;;;;;;;;;;25.30;81.90;96763.69;599843;236;68858;-64
2022/07/31 03:52:13;;;;;;;;;;;;;;;25.30;81.85;96769.07;599881;236;67092;-64
2022/07/31 03:54:41;;;;;;;;;;;;;;;25.31;81.78;96769.86;599833;236;65397;-63
2022/07/31 03:57:11;;;;;;;;;;;;;;;25.29;81.79;96763.98;597150;236;49292;-65
2022/07/31 03:59:40;;;;;;;;;;;;;;;25.30;81.88;96762.91;597996;237;69493;-63
2022/07/31 04:02:09;;;;;;;;;;;;;;;25.29;81.88;96754.05;598076;237;62992;-63
2022/07/31 04:04:43;;;;;;;;;;;;;;;25.30;81.82;96770.97;598008;237;47408;-64
2022/07/31 04:07:11;;;;;;;;;;;;;;;25.29;81.93;96764.80;597976;237;68748;-63
2022/07/31 04:09:41;;;;;;;;;;;;;;;25.29;81.89;96766.67;597943;237;65097;-63
2022/07/31 04:12:10;;;;;;;;;;;;;;;25.30;81.90;96762.91;597989;237;68684;-64
2022/07/31 04:14:38;;;;;;;;;;;;;;;25.29;81.87;96763.98;598102;237;68649;-63
2022/07/31 04:17:05;;;;;;;;;;;;;;;25.30;81.85;96763.69;598065;237;62990;-63
2022/07/31 04:19:33;;;;;;;;;;;;;;;25.28;81.84;96757.03;598036;237;66137;-63
2022/07/31 04:22:01;;;;;;;;;;;;;;;25.28;81.83;96757.81;598022;237;68423;-63
2022/07/31 04:24:30;;;;;;;;;;;;;;;25.28;81.82;96755.13;598017;237;65115;-63
2022/07/31 04:26:59;;;;;;;;;;;;;;;25.30;81.87;96757.52;597402;237;49518;-63
2022/07/31 04:29:28;;;;;;;;;;;;;;;25.28;81.73;96765.89;597839;237;45591;-65
2022/07/31 04:31:56;;;;;;;;;;;;;;;25.29;81.83;96762.11;598042;237;66078;-63
2022/07/31 04:34:26;;;;;;;;;;;;;;;25.28;81.84;96765.09;597768;237;45543;-65
2022/07/31 04:36:53;;;;;;;;;;;;;;;25.28;81.81;96767.78;598039;237;66468;-64
2022/07/31 04:39:21;;;;;;;;;;;;;;;25.28;81.66;96776.64;598008;237;65062;-64
2022/07/31 04:41:49;;;;;;;;;;;;;;;25.28;81.91;96773.95;598074;237;66171;-64
2022/07/31 04:44:17;;;;;;;;;;;;;;;25.28;81.82;96775.85;598014;237;68788;-64
2022/07/31 04:46:52;;;;;;;;;;;;;;;25.28;81.81;96775.85;597939;237;46481;-64
2022/07/31 04:49:19;;;;;;;;;;;;;;;25.27;81.72;96785.83;597988;237;68957;-64
2022/07/31 04:51:47;;;;;;;;;;;;;;;25.28;81.64;96787.41;598023;237;69337;-64
2022/07/31 04:54:15;;;;;;;;;;;;;;;25.28;81.64;96783.92;598055;237;62905;-64
2022/07/31 04:56:43;;;;;;;;;;;;;;;25.27;81.63;96785.83;597984;237;69280;-64
2022/07/31 04:59:11;;;;;;;;;;;;;;;25.27;81.58;96785.03;598000;237;68650;-64
2022/07/31 05:01:42;;;;;;;;;;;;;;;25.26;81.70;96789.59;598016;237;47892;-64
2022/07/31 05:04:10;;;;;;;;;;;;;;;25.27;81.63;96795.79;598022;237;68788;-64
2022/07/31 05:06:41;;;;;;;;;;;;;;;25.27;81.80;96796.58;598055;237;66462;-64
2022/07/31 05:09:11;;;;;;;;;;;;;;;25.25;81.87;96796.88;598055;237;63617;-63
2022/07/31 05:11:39;;;;;;;;;;;;;;;25.26;81.86;96794.97;597995;237;66700;-63
2022/07/31 05:14:08;;;;;;;;;;;;;;;25.26;81.77;96797.66;597959;237;69497;-63
2022/07/31 05:16:36;;;;;;;;;;;;;;;25.26;81.78;96803.04;598023;237;65015;-63
2022/07/31 05:19:04;;;;;;;;;;;;;;;25.26;81.83;96803.04;598003;237;66684;-63
2022/07/31 05:21:49;;;;;;;;;;;;;;;25.25;81.77;96802.25;598141;237;49541;-61
2022/07/31 05:24:24;;;;;;;;;;;;;;;25.25;81.76;96794.18;598087;237;46669;-62
2022/07/31 05:26:57;;;;;;;;;;;;;;;25.25;81.79;96798.77;597375;237;48130;-64
2022/07/31 05:29:26;;;;;;;;;;;;;;;25.25;81.78;96798.77;597964;237;68746;-65
2022/07/31 05:31:54;;;;;;;;;;;;;;;25.27;81.75;96795.79;597947;237;62690;-64
2022/07/31 05:34:23;;;;;;;;;;;;;;;25.25;81.64;96806.84;598037;237;69234;-64
2022/07/31 05:36:50;;;;;;;;;;;;;;;25.25;81.66;96809.53;597986;237;68802;-63
2022/07/31 05:39:18;;;;;;;;;;;;;;;25.25;81.66;96809.53;597969;237;65092;-63
2022/07/31 05:42:03;;;;;;;;;;;;;;;25.25;81.67;96810.32;598109;237;39577;-62
2022/07/31 05:44:53;;;;;;;;;;;;;;;25.25;81.64;96817.59;586872;237;49803;-63
2022/07/31 05:47:20;;;;;;;;;;;;;;;25.25;81.74;96817.59;597981;237;65151;-63
2022/07/31 05:49:48;;;;;;;;;;;;;;;25.24;81.78;96816.80;598003;237;69513;-63
2022/07/31 05:52:18;;;;;;;;;;;;;;;25.24;81.65;96816.80;598031;237;66452;-63
2022/07/31 05:54:48;;;;;;;;;;;;;;;25.24;81.68;96821.40;597602;237;42110;-63
2022/07/31 05:57:26;;;;;;;;;;;;;;;25.24;81.60;96808.73;569630;247;49889;-63
2022/07/31 05:59:54;;;;;;;;;;;;;;;25.24;81.65;96813.33;591922;239;71226;-63
2022/07/31 06:02:22;;;;;;;;;;;;;;;25.24;81.58;96813.33;591982;239;65260;-63
2022/07/31 06:05:00;;;;;;;;;;;;;;;25.24;81.68;96821.40;591927;239;45949;-63
2022/07/31 06:07:28;;;;;;;;;;;;;;;25.23;81.58;96817.09;592012;239;66115;-63
2022/07/31 06:09:56;;;;;;;;;;;;;;;25.23;81.57;96827.86;591985;239;64948;-63
2022/07/31 06:12:24;;;;;;;;;;;;;;;25.23;81.61;96833.23;591964;239;68787;-64
2022/07/31 06:14:51;;;;;;;;;;;;;;;25.23;81.52;96838.61;591993;239;66569;-64
2022/07/31 06:17:33;;;;;;;;;;;;;;;25.22;80.01;96832.45;591949;239;45084;-64
2022/07/31 06:20:01;;;;;;;;;;;;;;;25.24;79.86;96832.16;592010;239;69051;-64
2022/07/31 06:22:28;;;;;;;;;;;;;;;25.25;80.43;96825.66;592024;239;68414;-64
2022/07/31 06:24:56;;;;;;;;;;;;;;;25.25;80.98;96828.36;591991;239;65186;-64
2022/07/31 06:27:24;;;;;;;;;;;;;;;25.25;81.32;96828.36;591968;239;68908;-64
2022/07/31 06:29:51;;;;;;;;;;;;;;;25.25;81.66;96826.45;591952;239;68916;-66
2022/07/31 06:32:22;;;;;;;;;;;;;;;25.27;82.07;96828.86;592042;239;63007;-64
2022/07/31 06:34:49;;;;;;;;;;;;;;;25.25;82.23;96825.66;592035;239;69687;-64
2022/07/31 06:37:18;;;;;;;;;;;;;;;25.26;82.31;96819.17;591964;239;68691;-64
2022/07/31 06:39:47;;;;;;;;;;;;;;;25.25;82.38;96818.39;592068;239;43928;-64
2022/07/31 06:42:33;;;;;;;;;;;;;;;25.25;82.36;96817.59;592094;239;43817;-64
2022/07/31 06:45:06;;;;;;;;;;;;;;;25.25;82.47;96815.70;592086;239;48586;-65
2022/07/31 06:47:45;;;;;;;;;;;;;;;25.26;82.53;96813.80;591156;240;45026;-62
2022/07/31 06:50:14;;;;;;;;;;;;;;;25.27;82.53;96811.92;593915;238;49515;-62
2022/07/31 06:52:44;;;;;;;;;;;;;;;25.27;82.53;96812.72;594075;238;48622;-62
2022/07/31 06:55:11;;;;;;;;;;;;;;;25.27;82.56;96812.72;594338;236;63761;-62
2022/07/31 06:57:40;;;;;;;;;;;;;;;25.28;82.59;96805.44;597900;237;68934;-62
2022/07/31 07:00:09;;;;;;;;;;;;;;;25.28;82.53;96806.23;595181;238;68577;-62
2022/07/31 07:02:36;;;;;;;;;;;;;;;25.28;82.51;96805.44;595285;238;62508;-62
2022/07/31 07:05:05;;;;;;;;;;;;;;;25.28;82.51;96803.54;595211;238;69252;-62
2022/07/31 07:07:34;;;;;;;;;;;;;;;25.28;82.50;96806.23;595227;238;68776;-62
2022/07/31 07:10:01;;;;;;;;;;;;;;;25.28;82.46;96808.92;595219;238;64997;-62
2022/07/31 07:12:43;;;;;;;;;;;;;;;25.29;82.47;96815.91;577262;238;50128;-62
2022/07/31 07:15:11;;;;;;;;;;;;;;;25.29;82.48;96813.22;595232;238;68684;-62
2022/07/31 07:17:39;;;;;;;;;;;;;;;25.29;82.49;96818.59;595292;238;62747;-62
2022/07/31 07:20:10;;;;;;;;;;;;;;;25.29;82.46;96815.09;595133;238;47315;-62
2022/07/31 07:22:37;;;;;;;;;;;;;;;25.30;82.44;96817.48;595229;238;68684;-62
2022/07/31 07:25:06;;;;;;;;;;;;;;;25.30;82.41;96814.01;595231;238;63008;-62
2022/07/31 07:27:34;;;;;;;;;;;;;;;25.29;82.37;96799.77;595229;238;69466;-62
2022/07/31 07:30:02;;;;;;;;;;;;;;;25.30;82.36;96805.94;595263;238;66193;-62
2022/07/31 07:32:30;;;;;;;;;;;;;;;25.30;82.31;96801.34;595227;238;65073;-62
2022/07/31 07:34:58;;;;;;;;;;;;;;;25.29;82.26;96794.39;595240;238;66226;-62
2022/07/31 07:37:27;;;;;;;;;;;;;;;25.30;82.40;96797.88;594584;238;46447;-62
2022/07/31 07:39:55;;;;;;;;;;;;;;;25.29;82.38;96799.77;595222;238;65093;-62
2022/07/31 07:42:23;;;;;;;;;;;;;;;25.30;82.33;96798.66;595265;238;68931;-62
2022/07/31 07:44:50;;;;;;;;;;;;;;;25.31;82.36;96796.76;595203;238;66505;-62
2022/07/31 07:47:19;;;;;;;;;;;;;;;25.31;82.37;96802.14;595230;238;65759;-62
2022/07/31 07:49:47;;;;;;;;;;;;;;;25.31;82.40;96800.23;595218;238;66268;-62
2022/07/31 07:52:25;;;;;;;;;;;;;;;25.30;82.52;96801.34;594749;238;45967;-62
2022/07/31 07:55:04;;;;;;;;;;;;;;;25.31;82.51;96802.14;594670;238;43882;-62
2022/07/31 07:57:39;;;;;;;;;;;;;;;25.30;82.47;96801.34;581808;238;48507;-63
2022/07/31 08:00:25;;;;;;;;;;;;;;;25.30;82.40;96801.34;595359;238;44742;-62
2022/07/31 08:02:57;;;;;;;;;;;;;;;25.31;82.39;96807.52;595248;237;46533;-62
2022/07/31 08:05:25;;;;;;;;;;;;;;;25.30;82.37;96806.73;595213;238;68699;-62
2022/07/31 08:07:52;;;;;;;;;;;;;;;25.30;82.44;96806.73;595218;238;68705;-62
2022/07/31 08:10:22;;;;;;;;;;;;;;;25.31;82.42;96808.31;594364;238;45019;-62
2022/07/31 08:12:54;;;;;;;;;;;;;;;25.30;82.35;96806.73;595080;238;46524;-62
2022/07/31 08:15:40;;;;;;;;;;;;;;;25.31;82.30;96799.45;595375;238;39288;-61
2022/07/31 08:18:21;;;;;;;;;;;;;;;25.31;82.29;96802.93;590392;238;44455;-61
2022/07/31 08:20:48;;;;;;;;;;;;;;;25.31;82.31;96802.93;595230;238;66165;-61
2022/07/31 08:23:16;;;;;;;;;;;;;;;25.31;82.33;96802.93;595216;238;69414;-61
2022/07/31 08:25:44;;;;;;;;;;;;;;;25.31;82.26;96797.55;595195;238;65753;-61
2022/07/31 08:28:12;;;;;;;;;;;;;;;25.31;82.27;96802.93;595313;238;66296;-61
2022/07/31 08:30:40;;;;;;;;;;;;;;;25.31;82.33;96805.62;595245;238;68449;-62
2022/07/31 08:33:08;;;;;;;;;;;;;;;25.31;82.24;96802.93;595216;238;62470;-62
2022/07/31 08:35:37;;;;;;;;;;;;;;;25.31;82.20;96811.00;595243;238;47110;-61
2022/07/31 08:38:05;;;;;;;;;;;;;;;25.31;82.15;96802.93;595198;238;68932;-63
2022/07/31 08:40:35;;;;;;;;;;;;;;;25.32;82.11;96799.16;595097;238;41553;-62
2022/07/31 08:43:03;;;;;;;;;;;;;;;25.31;82.18;96805.62;588988;241;68552;-62
2022/07/31 08:45:32;;;;;;;;;;;;;;;25.32;82.16;96804.54;595378;238;68822;-62
2022/07/31 08:48:03;;;;;;;;;;;;;;;25.32;82.18;96801.03;595335;235;42606;-62
2022/07/31 08:50:33;;;;;;;;;;;;;;;25.32;82.18;96809.91;595400;236;46528;-62
2022/07/31 08:53:02;;;;;;;;;;;;;;;25.32;82.24;96799.16;595386;238;67201;-62
2022/07/31 08:55:49;;;;;;;;;;;;;;;25.32;82.16;96807.23;597816;234;45022;-62
2022/07/31 08:58:19;;;;;;;;;;;;;;;25.32;82.05;96803.72;605491;234;68880;-62
2022/07/31 09:00:46;;;;;;;;;;;;;;;25.31;82.07;96802.93;605382;234;69007;-62
2022/07/31 09:03:14;;;;;;;;;;;;;;;25.32;82.11;96804.54;605410;234;62665;-62
2022/07/31 09:05:46;;;;;;;;;;;;;;;25.32;82.04;96804.54;605129;234;49856;-62
2022/07/31 09:08:15;;;;;;;;;;;;;;;25.32;82.03;96799.16;605402;234;69236;-62
2022/07/31 09:10:44;;;;;;;;;;;;;;;25.32;82.07;96815.30;605450;234;46882;-62
2022/07/31 09:13:15;;;;;;;;;;;;;;;25.32;82.16;96815.30;605424;234;66178;-62
2022/07/31 09:15:42;;;;;;;;;;;;;;;25.32;82.08;96803.72;605378;234;66651;-62
2022/07/31 09:18:18;;;;;;;;;;;;;;;25.32;82.09;96806.41;605459;234;64973;-62
2022/07/31 09:20:54;;;;;;;;;;;;;;;25.32;82.05;96804.54;605413;234;66206;-62
2022/07/31 09:23:22;;;;;;;;;;;;;;;25.32;82.04;96801.03;605183;234;68683;-62
2022/07/31 09:25:58;;;;;;;;;;;;;;;25.33;82.05;96808.02;605435;234;63185;-62
2022/07/31 09:28:34;;;;;;;;;;;;;;;25.32;82.03;96796.47;605431;234;69897;-61
2022/07/31 09:31:02;;;;;;;;;;;;;;;25.32;82.02;96804.54;605429;234;66236;-62
2022/07/31 09:33:47;;;;;;;;;;;;;;;25.31;82.01;96797.55;605555;234;39031;-62
2022/07/31 09:36:33;;;;;;;;;;;;;;;25.32;81.99;96798.34;605506;234;40370;-61
2022/07/31 09:39:07;;;;;;;;;;;;;;;25.32;81.95;96801.84;605009;234;46852;-62
2022/07/31 09:41:36;;;;;;;;;;;;;;;25.33;81.95;96805.33;593928;234;46044;-62
2022/07/31 09:44:09;;;;;;;;;;;;;;;25.32;81.99;96801.03;604217;234;49599;-62
2022/07/31 09:46:44;;;;;;;;;;;;;;;25.32;81.95;96801.03;605452;234;68268;-62
2022/07/31 09:49:11;;;;;;;;;;;;;;;25.32;81.94;96793.78;605439;234;66662;-62
2022/07/31 09:51:47;;;;;;;;;;;;;;;25.32;81.95;96796.47;605450;234;69205;-62
2022/07/31 09:54:21;;;;;;;;;;;;;;;25.31;81.98;96794.86;605269;234;48212;-62
2022/07/31 09:57:12;;;;;;;;;;;;;;;25.32;82.00;96801.03;597422;234;47359;-64
2022/07/31 09:59:45;;;;;;;;;;;;;;;25.32;82.01;96784.89;595491;236;54040;-63
2022/07/31 10:02:14;;;;;;;;;;;;;;;25.32;81.97;96790.27;595414;238;66290;-62
2022/07/31 10:04:46;;;;;;;;;;;;;;;25.32;81.99;96779.51;595382;238;62907;-62
2022/07/31 10:07:16;;;;;;;;;;;;;;;25.32;82.03;96780.33;595375;238;68610;-62
2022/07/31 10:09:46;;;;;;;;;;;;;;;25.32;81.95;96774.95;595384;238;68101;-62
2022/07/31 10:12:17;;;;;;;;;;;;;;;25.32;82.05;96774.95;595376;237;43251;-62
2022/07/31 10:14:44;;;;;;;;;;;;;;;25.33;82.03;96776.53;595440;238;66278;-63
2022/07/31 10:17:14;;;;;;;;;;;;;;;25.32;82.01;96771.44;595395;238;69041;-62
2022/07/31 10:20:04;;;;;;;;;;;;;;;25.33;81.96;96763.08;595100;237;46469;-62
2022/07/31 10:22:50;;;;;;;;;;;;;;;25.33;81.98;96751.53;595523;238;43487;-62
2022/07/31 10:25:21;;;;;;;;;;;;;;;25.33;82.09;96754.22;595514;236;47446;-62
2022/07/31 10:27:50;;;;;;;;;;;;;;;25.33;82.03;96754.22;595434;238;65148;-61
2022/07/31 10:30:17;;;;;;;;;;;;;;;25.32;82.12;96753.44;595400;238;66294;-62
2022/07/31 10:32:47;;;;;;;;;;;;;;;25.33;82.05;96746.16;595379;237;50295;-63
2022/07/31 10:35:29;;;;;;;;;;;;;;;25.33;81.98;96744.25;595514;238;44991;-65
2022/07/31 10:38:00;;;;;;;;;;;;;;;25.32;82.07;96745.36;594965;237;51300;-64
2022/07/31 10:40:30;;;;;;;;;;;;;;;25.34;82.08;96739.66;595580;236;48703;-64
2022/07/31 10:43:01;;;;;;;;;;;;;;;25.33;82.07;96736.18;595385;237;43948;-62
2022/07/31 10:45:30;;;;;;;;;;;;;;;25.33;82.03;96730.80;595127;237;66193;-62
2022/07/31 10:48:01;;;;;;;;;;;;;;;25.33;81.96;96730.02;595357;236;49677;-62
2022/07/31 10:50:34;;;;;;;;;;;;;;;25.33;81.94;96736.18;594674;238;45064;-63
2022/07/31 10:53:14;;;;;;;;;;;;;;;25.34;81.93;96728.90;588584;241;49553;-61
2022/07/31 10:56:11;;;;;;;;;;;;;;;25.33;81.90;96716.56;591199;235;50715;-63
2022/07/31 10:58:50;;;;;;;;;;;;;;;25.33;81.92;96720.05;592914;235;47338;-64
2022/07/31 11:01:36;;;;;;;;;;;;;;;25.34;81.92;96710.07;602877;235;46283;-64
2022/07/31 11:04:06;;;;;;;;;;;;;;;25.33;82.00;96701.22;602796;235;49245;-64
2022/07/31 11:06:40;;;;;;;;;;;;;;;25.33;82.00;96713.88;602447;235;47240;-65
2022/07/31 11:09:27;;;;;;;;;;;;;;;25.33;82.02;96703.91;603672;235;40082;-65
2022/07/31 11:11:56;;;;;;;;;;;;;;;25.33;82.07;96700.42;602795;235;50511;-64
2022/07/31 11:14:44;;;;;;;;;;;;;;;25.33;82.07;96703.91;603189;235;47390;-64
2022/07/31 11:17:33;;;;;;;;;;;;;;;25.34;82.02;96710.07;603602;235;50604;-64
2022/07/31 11:20:25;;;;;;;;;;;;;;;25.34;82.01;96704.70;599571;235;49519;-64
2022/07/31 11:23:00;;;;;;;;;;;;;;;25.33;81.93;96706.59;603518;235;62819;-62
2022/07/31 11:25:32;;;;;;;;;;;;;;;25.34;82.04;96707.38;603527;235;66079;-61
2022/07/31 11:28:24;;;;;;;;;;;;;;;25.34;82.09;96712.77;603593;235;66230;-61
2022/07/31 11:30:49;;;;;;;;;;;;;;;25.33;81.96;96703.91;603253;235;65317;-62
2022/07/31 11:33:39;;;;;;;;;;;;;;;25.34;82.10;96694.72;603515;235;66410;-62
2022/07/31 11:36:08;;;;;;;;;;;;;;;25.34;82.11;96693.94;603479;235;68528;-61
2022/07/31 11:38:36;;;;;;;;;;;;;;;25.34;81.94;96691.24;603539;235;65337;-61
2022/07/31 11:41:04;;;;;;;;;;;;;;;25.34;82.09;96688.55;603529;235;68507;-61
2022/07/31 11:43:33;;;;;;;;;;;;;;;25.33;82.08;96685.08;603490;235;68454;-61
2022/07/31 11:46:01;;;;;;;;;;;;;;;25.34;82.18;96678.59;603588;235;64905;-61
2022/07/31 11:48:31;;;;;;;;;;;;;;;25.34;82.24;96667.83;596293;235;68350;-61
2022/07/31 11:51:04;;;;;;;;;;;;;;;25.34;82.16;96667.04;603512;235;69135;-61
2022/07/31 11:53:28;;;;;;;;;;;;;;;25.34;82.18;96661.66;603371;235;62608;-61
2022/07/31 11:55:58;;;;;;;;;;;;;;;25.35;82.15;96664.05;604110;234;68183;-61
2022/07/31 11:58:27;;;;;;;;;;;;;;;25.35;82.17;96657.89;605511;234;66425;-63
2022/07/31 12:00:56;;;;;;;;;;;;;;;25.35;82.04;96658.67;605423;234;65114;-62
2022/07/31 12:03:25;;;;;;;;;;;;;;;25.35;82.01;96650.61;605464;234;66471;-62
2022/07/31 12:05:53;;;;;;;;;;;;;;;25.36;82.11;96651.39;605459;234;68609;-62
2022/07/31 12:08:21;;;;;;;;;;;;;;;25.34;81.95;96649.00;605456;234;65202;-62
2022/07/31 12:10:50;;;;;;;;;;;;;;;25.36;82.13;96657.56;605488;234;68428;-62
2022/07/31 12:13:19;;;;;;;;;;;;;;;25.35;82.15;96664.05;605437;234;68288;-62
2022/07/31 12:16:00;;;;;;;;;;;;;;;25.35;82.18;96653.30;605472;234;65221;-63
2022/07/31 12:18:28;;;;;;;;;;;;;;;25.35;82.25;96658.67;605480;234;66122;-62
2022/07/31 12:20:57;;;;;;;;;;;;;;;25.35;82.08;96658.67;605415;234;68742;-62
2022/07/31 12:23:25;;;;;;;;;;;;;;;25.36;82.20;96659.46;605447;234;64916;-62
2022/07/31 12:25:55;;;;;;;;;;;;;;;25.35;82.12;96661.36;605482;234;66061;-62
2022/07/31 12:28:24;;;;;;;;;;;;;;;25.34;82.05;96654.37;605278;234;68819;-63
2022/07/31 12:30:53;;;;;;;;;;;;;;;25.35;82.25;96652.50;605458;234;65256;-62
2022/07/31 12:33:26;;;;;;;;;;;;;;;25.35;82.22;96647.91;605159;234;66082;-62
2022/07/31 12:35:55;;;;;;;;;;;;;;;25.35;82.23;96647.91;605477;234;52576;-62
2022/07/31 12:38:24;;;;;;;;;;;;;;;25.36;82.28;96643.33;605447;234;63641;-62
2022/07/31 12:40:54;;;;;;;;;;;;;;;25.36;82.08;96643.33;605370;234;68776;-62
2022/07/31 12:43:23;;;;;;;;;;;;;;;25.36;82.20;96641.42;604810;234;45549;-62
2022/07/31 12:45:52;;;;;;;;;;;;;;;25.36;82.09;96637.94;598584;234;64537;-62
2022/07/31 12:48:19;;;;;;;;;;;;;;;25.36;82.22;96638.73;605503;234;68314;-64
2022/07/31 12:50:47;;;;;;;;;;;;;;;25.36;82.33;96630.66;605481;234;69199;-64
2022/07/31 12:53:14;;;;;;;;;;;;;;;25.36;82.28;96627.19;605519;234;65229;-64
2022/07/31 12:55:42;;;;;;;;;;;;;;;25.37;82.19;96623.38;605484;234;68418;-64
2022/07/31 12:58:09;;;;;;;;;;;;;;;25.36;82.20;96617.22;605535;234;68007;-64
2022/07/31 13:00:37;;;;;;;;;;;;;;;25.36;82.16;96616.42;605504;234;65056;-64
2022/07/31 13:03:05;;;;;;;;;;;;;;;25.36;82.22;96622.59;605505;234;68282;-64
2022/07/31 13:05:32;;;;;;;;;;;;;;;25.36;82.31;96616.42;605513;234;66187;-64